createdAt,value
2023-03-08T00:01:41.498Z,99511.13
2023-03-08T00:04:13.927Z,99513.69
2023-03-08T00:06:43.020Z,99512.06
2023-03-08T00:09:12.021Z,99521.78
2023-03-08T00:11:41.006Z,99533.09
2023-03-08T00:14:10.093Z,99532.91
2023-03-08T00:16:39.123Z,99544.13
2023-03-08T00:19:08.176Z,99540.56
2023-03-08T00:21:38.578Z,99547.13
2023-03-08T00:24:07.849Z,99547.38
2023-03-08T00:26:36.872Z,99550.03
2023-03-08T00:29:06.462Z,99556.19
2023-03-08T00:31:35.597Z,99560.63
2023-03-08T00:34:04.767Z,99563.34
2023-03-08T00:36:33.842Z,99566.63
2023-03-08T00:39:04.230Z,99569.84
2023-03-08T00:41:33.279Z,99570.81
2023-03-08T00:44:02.373Z,99570.56
2023-03-08T00:46:31.536Z,99577.28
2023-03-08T00:49:00.694Z,99584.53
2023-03-08T00:51:29.768Z,99585.91
2023-03-08T00:53:58.812Z,99580.41
2023-03-08T00:56:29.235Z,99570.19
2023-03-08T00:58:59.215Z,99573.19
2023-03-08T01:01:28.344Z,99571.84
2023-03-08T01:03:57.471Z,99567.00
2023-03-08T01:06:26.703Z,99568.91
2023-03-08T01:08:55.754Z,99565.31
2023-03-08T01:11:28.589Z,99564.31
2023-03-08T01:13:57.677Z,99561.91
2023-03-08T01:16:29.626Z,99566.16
2023-03-08T01:19:01.076Z,99562.22
2023-03-08T01:21:32.454Z,99556.03
2023-03-08T01:24:01.701Z,99557.31
2023-03-08T01:26:32.112Z,99551.81
2023-03-08T01:29:01.500Z,99550.72
2023-03-08T01:31:31.831Z,99545.19
2023-03-08T01:34:02.326Z,99541.03
2023-03-08T01:36:31.368Z,99544.75
2023-03-08T01:39:02.267Z,99539.03
2023-03-08T01:41:33.506Z,99536.81
2023-03-08T01:44:03.574Z,99537.28
2023-03-08T01:46:33.578Z,99542.25
2023-03-08T01:49:12.302Z,99539.94
2023-03-08T01:51:44.076Z,99534.34
2023-03-08T01:54:17.092Z,99540.28
2023-03-08T01:56:50.258Z,99532.31
2023-03-08T01:59:21.926Z,99533.06
2023-03-08T02:01:51.375Z,99523.56
2023-03-08T02:04:21.591Z,99521.56
2023-03-08T02:06:50.707Z,99534.50
2023-03-08T02:09:23.915Z,99527.59
2023-03-08T02:12:00.101Z,99525.97
2023-03-08T02:14:30.071Z,99515.75
2023-03-08T02:16:59.403Z,99514.47
2023-03-08T02:19:35.074Z,99504.53
2023-03-08T02:22:10.835Z,99507.75
2023-03-08T02:24:43.038Z,99510.03
2023-03-08T02:27:18.736Z,99518.59
2023-03-08T02:29:48.241Z,99522.91
2023-03-08T02:32:18.377Z,99528.06
2023-03-08T02:34:47.432Z,99525.31
2023-03-08T02:37:16.478Z,99527.03
2023-03-08T02:39:46.837Z,99529.88
2023-03-08T02:42:15.936Z,99519.44
2023-03-08T02:44:45.384Z,99531.59
2023-03-08T02:47:14.584Z,99531.66
2023-03-08T02:49:43.593Z,99536.91
2023-03-08T02:52:13.803Z,99535.31
2023-03-08T02:54:42.916Z,99538.91
2023-03-08T02:57:13.348Z,99527.16
2023-03-08T02:59:42.401Z,99533.41
2023-03-08T03:02:12.259Z,99528.44
2023-03-08T03:04:41.299Z,99532.03
2023-03-08T03:07:10.381Z,99533.59
2023-03-08T03:09:40.116Z,99533.94
2023-03-08T03:12:09.656Z,99541.03
2023-03-08T03:14:43.360Z,99529.91
2023-03-08T03:17:12.451Z,99528.97
2023-03-08T03:19:41.656Z,99536.50
2023-03-08T03:22:10.683Z,99529.16
2023-03-08T03:24:39.768Z,99528.38
2023-03-08T03:27:09.952Z,99527.03
2023-03-08T03:29:42.288Z,99523.41
2023-03-08T03:32:17.388Z,99537.94
2023-03-08T03:34:46.509Z,99546.91
2023-03-08T03:37:16.977Z,99542.94
2023-03-08T03:39:47.156Z,99547.25
2023-03-08T03:42:19.808Z,99543.63
2023-03-08T03:45:06.335Z,99531.38
2023-03-08T03:47:35.793Z,99541.41
2023-03-08T03:50:08.221Z,99547.97
2023-03-08T03:52:48.372Z,99544.69
2023-03-08T03:55:17.431Z,99544.00
2023-03-08T03:57:47.304Z,99545.88
2023-03-08T04:00:22.177Z,99551.28
2023-03-08T04:03:01.081Z,99555.25
2023-03-08T04:05:32.118Z,99558.00
2023-03-08T04:08:01.267Z,99559.88
2023-03-08T04:10:33.566Z,99553.66
2023-03-08T04:13:02.984Z,99551.78
2023-03-08T04:15:33.465Z,99560.16
2023-03-08T04:18:06.049Z,99559.88
2023-03-08T04:20:36.857Z,99549.22
2023-03-08T04:23:06.835Z,99554.38
2023-03-08T04:25:41.084Z,99560.63
2023-03-08T04:28:12.476Z,99553.13
2023-03-08T04:30:44.759Z,99561.84
2023-03-08T04:33:15.250Z,99549.69
2023-03-08T04:35:49.304Z,99553.09
2023-03-08T04:38:20.727Z,99557.22
2023-03-08T04:41:10.249Z,99550.41
2023-03-08T04:43:51.065Z,99546.56
2023-03-08T04:46:26.981Z,99546.56
2023-03-08T04:48:56.460Z,99540.38
2023-03-08T04:51:28.792Z,99540.97
2023-03-08T04:54:01.002Z,99543.75
2023-03-08T04:56:30.848Z,99546.97
2023-03-08T04:59:01.476Z,99546.78
2023-03-08T05:01:32.176Z,99547.53
2023-03-08T05:04:01.662Z,99543.00
2023-03-08T05:06:36.946Z,99542.47
2023-03-08T05:09:06.987Z,99540.38
2023-03-08T05:11:37.982Z,99530.38
2023-03-08T05:14:07.463Z,99536.03
2023-03-08T05:16:38.105Z,99536.06
2023-03-08T05:19:07.199Z,99540.63
2023-03-08T05:21:41.804Z,99544.41
2023-03-08T05:24:10.969Z,99539.59
2023-03-08T05:26:41.039Z,99540.44
2023-03-08T05:29:11.798Z,99547.47
2023-03-08T05:31:45.376Z,99544.56
2023-03-08T05:34:15.737Z,99545.69
2023-03-08T05:36:48.714Z,99541.19
2023-03-08T05:39:17.831Z,99549.84
2023-03-08T05:41:59.202Z,99551.09
2023-03-08T05:44:32.798Z,99550.56
2023-03-08T05:47:03.791Z,99552.56
2023-03-08T05:49:33.031Z,99551.09
2023-03-08T05:52:02.779Z,99547.69
2023-03-08T05:54:31.975Z,99550.38
2023-03-08T05:57:05.727Z,99557.00
2023-03-08T05:59:35.514Z,99560.44
2023-03-08T06:02:07.634Z,99561.88
2023-03-08T06:04:41.660Z,99555.22
2023-03-08T06:07:12.499Z,99553.03
2023-03-08T06:09:46.148Z,99558.41
2023-03-08T06:12:17.789Z,99565.03
2023-03-08T06:14:49.947Z,99558.13
2023-03-08T06:17:22.928Z,99562.63
2023-03-08T06:19:53.452Z,99556.03
2023-03-08T06:22:22.577Z,99563.34
2023-03-08T06:24:51.619Z,99558.25
2023-03-08T06:27:27.705Z,99558.13
2023-03-08T06:29:59.132Z,99555.56
2023-03-08T06:32:30.193Z,99554.63
2023-03-08T06:34:59.353Z,99549.72
2023-03-08T06:37:32.724Z,99549.56
2023-03-08T06:40:03.902Z,99551.13
2023-03-08T06:42:41.148Z,99548.97
2023-03-08T06:45:13.706Z,99554.38
2023-03-08T06:47:44.089Z,99553.31
2023-03-08T06:50:14.712Z,99558.59
2023-03-08T06:52:46.860Z,99554.84
2023-03-08T06:55:17.874Z,99552.00
2023-03-08T06:57:47.785Z,99549.31
2023-03-08T07:00:17.439Z,99553.72
2023-03-08T07:02:48.619Z,99548.69
2023-03-08T07:05:18.194Z,99560.13
2023-03-08T07:07:47.352Z,99554.16
2023-03-08T07:10:19.432Z,99548.00
2023-03-08T07:12:51.256Z,99552.81
2023-03-08T07:15:23.272Z,99549.72
2023-03-08T07:17:55.982Z,99553.75
2023-03-08T07:20:27.438Z,99552.63
2023-03-08T07:22:57.355Z,99558.31
2023-03-08T07:25:26.406Z,99566.41
2023-03-08T07:27:55.454Z,99566.81
2023-03-08T07:30:24.554Z,99566.25
2023-03-08T07:32:55.982Z,99566.03
2023-03-08T07:35:25.031Z,99563.13
2023-03-08T07:37:54.176Z,99563.72
2023-03-08T07:40:23.607Z,99560.88
2023-03-08T07:42:52.761Z,99566.06
2023-03-08T07:45:40.286Z,99563.47
2023-03-08T07:48:10.651Z,99563.81
2023-03-08T07:50:39.753Z,99564.44
2023-03-08T07:53:08.885Z,99561.47
2023-03-08T07:55:39.040Z,99564.97
2023-03-08T07:58:08.141Z,99556.41
2023-03-08T08:00:37.216Z,99557.56
2023-03-08T08:03:06.317Z,99556.38
2023-03-08T08:05:38.302Z,99560.66
2023-03-08T08:08:07.509Z,99555.72
2023-03-08T08:10:36.650Z,99550.31
2023-03-08T08:13:05.738Z,99558.78
2023-03-08T08:15:34.914Z,99558.56
2023-03-08T08:18:04.124Z,99557.44
2023-03-08T08:20:33.187Z,99556.63
2023-03-08T08:23:06.429Z,99559.53
2023-03-08T08:25:35.539Z,99560.88
2023-03-08T08:28:04.606Z,99554.88
2023-03-08T08:30:33.696Z,99550.94
2023-03-08T08:33:03.478Z,99541.88
2023-03-08T08:35:42.684Z,99539.91
2023-03-08T08:38:13.907Z,99544.94
2023-03-08T08:40:43.043Z,99545.59
2023-03-08T08:43:12.131Z,99540.59
2023-03-08T08:45:45.392Z,99543.41
2023-03-08T08:48:14.965Z,99539.31
2023-03-08T08:50:44.680Z,99543.31
2023-03-08T08:53:15.232Z,99543.31
2023-03-08T08:55:45.637Z,99543.31
2023-03-08T08:58:15.577Z,99549.94
2023-03-08T09:00:44.691Z,99556.31
2023-03-08T09:03:13.739Z,99553.84
2023-03-08T09:05:45.404Z,99560.56
2023-03-08T09:08:15.970Z,99558.06
2023-03-08T09:10:44.968Z,99548.97
2023-03-08T09:13:14.593Z,99563.03
2023-03-08T09:15:43.684Z,99562.94
2023-03-08T09:18:12.676Z,99560.97
2023-03-08T09:20:41.955Z,99549.88
2023-03-08T09:23:11.157Z,99549.25
2023-03-08T09:25:41.529Z,99548.88
2023-03-08T09:28:11.724Z,99551.78
2023-03-08T09:30:40.777Z,99546.97
2023-03-08T09:33:09.765Z,99549.63
2023-03-08T09:35:38.804Z,99546.06
2023-03-08T09:38:07.865Z,99539.97
2023-03-08T09:40:47.049Z,99545.81
2023-03-08T09:43:29.787Z,99540.19
2023-03-08T09:45:58.853Z,99542.59
2023-03-08T09:48:31.156Z,99543.63
2023-03-08T09:51:04.678Z,99544.97
2023-03-08T09:53:40.706Z,99538.56
2023-03-08T09:56:17.788Z,99540.28
2023-03-08T09:58:51.531Z,99540.03
2023-03-08T10:01:28.443Z,99534.63
2023-03-08T10:04:15.318Z,99532.53
2023-03-08T10:06:52.197Z,99529.53
2023-03-08T10:09:31.263Z,99520.63
2023-03-08T10:12:13.527Z,99518.44
2023-03-08T10:14:49.145Z,99516.19
2023-03-08T10:17:21.751Z,99513.94
2023-03-08T10:19:56.613Z,99514.16
2023-03-08T10:22:29.983Z,99511.59
2023-03-08T10:25:03.251Z,99516.50
2023-03-08T10:27:36.477Z,99506.88
2023-03-08T10:30:15.071Z,99507.44
2023-03-08T10:32:46.303Z,99514.06
2023-03-08T10:35:15.803Z,99511.22
2023-03-08T10:37:50.942Z,99508.81
2023-03-08T10:40:22.759Z,99515.94
2023-03-08T10:42:57.256Z,99513.41
2023-03-08T10:45:27.874Z,99507.06
2023-03-08T10:47:59.045Z,99508.69
2023-03-08T10:50:29.971Z,99503.84
2023-03-08T10:53:10.681Z,99489.63
2023-03-08T10:55:46.916Z,99493.63
2023-03-08T10:58:35.940Z,99486.03
2023-03-08T11:01:07.425Z,99483.66
2023-03-08T11:03:36.642Z,99482.34
2023-03-08T11:06:14.616Z,99487.41
2023-03-08T11:08:55.888Z,99485.81
2023-03-08T11:11:25.202Z,99490.03
2023-03-08T11:13:56.438Z,99481.44
2023-03-08T11:16:49.366Z,99482.88
2023-03-08T11:19:33.281Z,99483.16
2023-03-08T11:22:14.058Z,99480.25
2023-03-08T11:25:01.996Z,99475.22
2023-03-08T11:27:46.434Z,99471.47
2023-03-08T11:30:28.395Z,99468.00
2023-03-08T11:33:22.185Z,99472.72
2023-03-08T11:35:58.029Z,99471.22
2023-03-08T11:38:28.922Z,99466.59
2023-03-08T11:41:07.660Z,99464.31
2023-03-08T11:43:53.059Z,99468.84
2023-03-08T11:46:28.853Z,99462.84
2023-03-08T11:49:21.727Z,99453.81
2023-03-08T11:51:58.277Z,99455.78
2023-03-08T11:54:44.709Z,99454.00
2023-03-08T11:57:17.318Z,99457.44
2023-03-08T11:59:51.769Z,99456.38
2023-03-08T12:02:26.899Z,99457.69
2023-03-08T12:05:03.931Z,99459.06
2023-03-08T12:07:38.528Z,99451.50
2023-03-08T12:10:21.083Z,99457.44
2023-03-08T12:12:54.878Z,99453.50
2023-03-08T12:15:31.183Z,99454.47
2023-03-08T12:18:11.703Z,99451.44
2023-03-08T12:20:44.051Z,99449.41
2023-03-08T12:23:24.850Z,99450.53
2023-03-08T12:26:01.790Z,99440.59
2023-03-08T12:28:35.700Z,99441.44
2023-03-08T12:31:27.505Z,99440.00
2023-03-08T12:34:01.149Z,99439.91
2023-03-08T12:36:41.580Z,99437.38
2023-03-08T12:39:26.628Z,99429.94
2023-03-08T12:42:14.276Z,99433.59
2023-03-08T12:44:44.198Z,99436.00
2023-03-08T12:47:23.167Z,99423.50
2023-03-08T12:49:57.036Z,99424.59
2023-03-08T12:52:33.223Z,99422.13
2023-03-08T12:55:06.684Z,99416.34
2023-03-08T12:57:42.810Z,99420.41
2023-03-08T13:00:31.116Z,99419.50
2023-03-08T13:03:02.862Z,99426.97
2023-03-08T13:05:35.645Z,99430.31
2023-03-08T13:08:20.020Z,99435.75
2023-03-08T13:11:04.926Z,99427.81
2023-03-08T13:13:42.320Z,99424.47
2023-03-08T13:16:39.017Z,99431.19
2023-03-08T13:19:22.206Z,99431.81
2023-03-08T13:22:00.013Z,99424.84
2023-03-08T13:24:39.882Z,99425.03
2023-03-08T13:27:26.108Z,99434.31
2023-03-08T13:29:55.665Z,99425.34
2023-03-08T13:32:26.183Z,99431.25
2023-03-08T13:35:00.673Z,99423.50
2023-03-08T13:37:32.109Z,99430.56
2023-03-08T13:40:02.172Z,99431.63
2023-03-08T13:42:31.203Z,99427.47
2023-03-08T13:45:17.125Z,99431.25
2023-03-08T13:47:47.237Z,99424.72
2023-03-08T13:50:24.720Z,99431.84
2023-03-08T13:52:55.317Z,99436.00
2023-03-08T13:55:31.475Z,99424.16
2023-03-08T13:58:01.716Z,99436.94
2023-03-08T14:00:32.706Z,99428.88
2023-03-08T14:03:04.015Z,99423.19
2023-03-08T14:05:40.819Z,99421.91
2023-03-08T14:08:21.390Z,99432.75
2023-03-08T14:10:54.872Z,99421.50
2023-03-08T14:13:28.462Z,99425.19
2023-03-08T14:15:59.773Z,99425.03
2023-03-08T14:18:32.643Z,99421.53
2023-03-08T14:21:07.357Z,99423.19
2023-03-08T14:23:42.312Z,99424.41
2023-03-08T14:26:30.071Z,99415.97
2023-03-08T14:29:19.801Z,99420.19
2023-03-08T14:32:01.532Z,99422.69
2023-03-08T14:34:33.938Z,99412.31
2023-03-08T14:37:06.386Z,99411.63
2023-03-08T14:39:38.967Z,99415.63
2023-03-08T14:42:17.931Z,99403.84
2023-03-08T14:44:53.369Z,99405.00
2023-03-08T14:47:25.377Z,99413.91
2023-03-08T14:50:00.876Z,99404.47
2023-03-08T14:52:31.227Z,99399.44
2023-03-08T14:55:03.496Z,99400.22
2023-03-08T14:57:32.826Z,99397.47
2023-03-08T15:00:13.948Z,99392.38
2023-03-08T15:02:43.341Z,99388.97
2023-03-08T15:05:28.031Z,99380.06
2023-03-08T15:08:00.051Z,99392.53
2023-03-08T15:10:32.845Z,99393.69
2023-03-08T15:13:02.202Z,99386.66
2023-03-08T15:15:31.265Z,99384.13
2023-03-08T15:18:00.284Z,99388.38
2023-03-08T15:20:29.351Z,99384.28
2023-03-08T15:23:02.276Z,99391.50
2023-03-08T15:25:35.552Z,99389.06
2023-03-08T15:28:06.000Z,99394.41
2023-03-08T15:30:35.307Z,99389.25
2023-03-08T15:33:04.390Z,99389.63
2023-03-08T15:35:33.574Z,99382.25
2023-03-08T15:38:02.667Z,99385.47
2023-03-08T15:40:34.426Z,99390.09
2023-03-08T15:43:03.966Z,99389.41
2023-03-08T15:45:32.979Z,99390.66
2023-03-08T15:48:03.398Z,99385.06
2023-03-08T15:50:34.455Z,99388.03
2023-03-08T15:53:04.030Z,99386.97
2023-03-08T15:55:34.553Z,99378.47
2023-03-08T15:58:03.560Z,99386.03
2023-03-08T16:00:32.943Z,99370.53
2023-03-08T16:03:02.164Z,99382.81
2023-03-08T16:05:32.793Z,99384.47
2023-03-08T16:08:03.556Z,99379.91
2023-03-08T16:10:40.320Z,99379.97
2023-03-08T16:13:09.552Z,99378.72
2023-03-08T16:15:41.143Z,99369.09
2023-03-08T16:18:10.267Z,99375.28
2023-03-08T16:20:41.534Z,99378.88
2023-03-08T16:23:10.872Z,99367.91
2023-03-08T16:25:43.144Z,99372.16
2023-03-08T16:28:12.690Z,99364.97
2023-03-08T16:30:42.783Z,99364.03
2023-03-08T16:33:11.788Z,99370.19
2023-03-08T16:35:41.792Z,99371.38
2023-03-08T16:38:11.220Z,99371.00
2023-03-08T16:40:41.634Z,99365.84
2023-03-08T16:43:10.715Z,99379.25
2023-03-08T16:45:52.878Z,99374.06
2023-03-08T16:48:22.430Z,99375.16
2023-03-08T16:50:53.044Z,99376.44
2023-03-08T16:53:22.184Z,99375.69
2023-03-08T16:55:53.450Z,99369.00
2023-03-08T16:58:22.865Z,99380.53
2023-03-08T17:00:52.382Z,99381.38
2023-03-08T17:03:23.500Z,99377.25
2023-03-08T17:05:52.530Z,99376.53
2023-03-08T17:08:21.517Z,99376.19
2023-03-08T17:10:51.945Z,99378.41
2023-03-08T17:13:20.959Z,99383.00
2023-03-08T17:15:50.875Z,99377.44
2023-03-08T17:18:19.900Z,99376.03
2023-03-08T17:20:49.472Z,99386.97
2023-03-08T17:23:19.648Z,99383.78
2023-03-08T17:25:48.675Z,99392.03
2023-03-08T17:28:19.123Z,99385.69
2023-03-08T17:30:48.163Z,99386.59
2023-03-08T17:33:17.616Z,99392.47
2023-03-08T17:35:46.662Z,99393.63
2023-03-08T17:38:15.694Z,99401.97
2023-03-08T17:40:44.724Z,99397.69
2023-03-08T17:43:14.121Z,99394.50
2023-03-08T17:45:45.624Z,99399.22
2023-03-08T17:48:14.608Z,99396.50
2023-03-08T17:50:43.679Z,99397.94
2023-03-08T17:53:13.106Z,99401.81
2023-03-08T17:55:42.300Z,99394.84
2023-03-08T17:58:11.531Z,99392.81
2023-03-08T18:00:40.537Z,99405.97
2023-03-08T18:03:10.924Z,99407.66
2023-03-08T18:05:47.524Z,99405.69
2023-03-08T18:08:16.528Z,99408.88
2023-03-08T18:10:45.774Z,99408.25
2023-03-08T18:13:14.846Z,99403.28
2023-03-08T18:15:43.882Z,99402.34
2023-03-08T18:18:14.377Z,99407.72
2023-03-08T18:20:43.631Z,99402.72
2023-03-08T18:23:13.544Z,99403.97
2023-03-08T18:25:42.686Z,99402.34
2023-03-08T18:28:11.915Z,99405.44
2023-03-08T18:30:40.967Z,99401.00
2023-03-08T18:33:10.057Z,99404.13
2023-03-08T18:35:40.541Z,99394.81
2023-03-08T18:38:09.523Z,99393.06
2023-03-08T18:40:38.573Z,99387.19
2023-03-08T18:43:07.579Z,99387.63
2023-03-08T18:45:36.595Z,99383.78
2023-03-08T18:48:05.625Z,99385.31
2023-03-08T18:50:34.702Z,99384.09
2023-03-08T18:53:05.139Z,99385.44
2023-03-08T18:55:34.155Z,99386.69
2023-03-08T18:58:03.175Z,99389.50
2023-03-08T19:00:32.725Z,99391.97
2023-03-08T19:03:01.910Z,99383.72
2023-03-08T19:05:30.939Z,99389.41
2023-03-08T19:07:59.917Z,99389.22
2023-03-08T19:10:32.910Z,99387.47
2023-03-08T19:13:02.400Z,99378.34
2023-03-08T19:15:31.432Z,99378.06
2023-03-08T19:18:00.471Z,99376.69
2023-03-08T19:20:30.079Z,99380.03
2023-03-08T19:22:59.151Z,99379.63
2023-03-08T19:25:30.940Z,99375.78
2023-03-08T19:27:59.977Z,99380.03
2023-03-08T19:30:29.479Z,99377.44
2023-03-08T19:32:58.529Z,99376.00
2023-03-08T19:35:27.543Z,99383.34
2023-03-08T19:37:56.624Z,99374.16
2023-03-08T19:40:26.717Z,99374.66
2023-03-08T19:42:57.106Z,99376.63
2023-03-08T19:45:26.275Z,99373.66
2023-03-08T19:47:55.392Z,99376.13
2023-03-08T19:50:24.390Z,99364.16
2023-03-08T19:52:53.450Z,99361.97
2023-03-08T19:55:22.462Z,99361.88
2023-03-08T19:57:51.454Z,99362.50
2023-03-08T20:00:22.587Z,99363.63
2023-03-08T20:02:51.665Z,99362.50
2023-03-08T20:05:21.645Z,99356.94
2023-03-08T20:07:50.655Z,99367.06
2023-03-08T20:10:19.889Z,99366.34
2023-03-08T20:12:50.062Z,99363.84
2023-03-08T20:15:19.144Z,99369.53
2023-03-08T20:17:49.654Z,99375.94
2023-03-08T20:20:19.154Z,99377.38
2023-03-08T20:22:48.171Z,99373.97
2023-03-08T20:25:17.735Z,99371.69
2023-03-08T20:27:46.992Z,99377.81
2023-03-08T20:30:16.359Z,99380.56
2023-03-08T20:32:45.457Z,99391.13
2023-03-08T20:35:16.091Z,99394.13
2023-03-08T20:37:45.250Z,99400.50
2023-03-08T20:40:16.603Z,99405.97
2023-03-08T20:42:45.649Z,99398.75
2023-03-08T20:45:15.148Z,99394.81
2023-03-08T20:47:44.282Z,99391.53
2023-03-08T20:50:15.108Z,99394.72
2023-03-08T20:52:44.132Z,99393.50
2023-03-08T20:55:13.329Z,99389.25
2023-03-08T20:57:42.348Z,99387.06
2023-03-08T21:00:13.610Z,99387.22
2023-03-08T21:02:42.794Z,99392.97
2023-03-08T21:05:12.369Z,99406.72
2023-03-08T21:07:42.798Z,99411.44
2023-03-08T21:10:12.450Z,99414.31
2023-03-08T21:12:41.618Z,99422.81
2023-03-08T21:15:12.056Z,99423.94
2023-03-08T21:17:41.069Z,99429.59
2023-03-08T21:20:11.799Z,99425.16
2023-03-08T21:22:42.189Z,99422.59
2023-03-08T21:25:12.092Z,99415.75
2023-03-08T21:27:41.245Z,99416.41
2023-03-08T21:30:12.934Z,99414.22
2023-03-08T21:32:42.041Z,99404.72
2023-03-08T21:35:11.816Z,99400.59
2023-03-08T21:37:42.240Z,99392.75
2023-03-08T21:40:12.524Z,99403.47
2023-03-08T21:42:41.642Z,99394.53
2023-03-08T21:45:11.493Z,99388.09
2023-03-08T21:47:40.556Z,99382.84
2023-03-08T21:50:10.388Z,99370.16
2023-03-08T21:52:39.425Z,99372.84
2023-03-08T21:55:10.567Z,99355.84
2023-03-08T21:57:39.584Z,99363.75
2023-03-08T22:00:11.422Z,99368.09
2023-03-08T22:02:45.705Z,99374.19
2023-03-08T22:05:15.091Z,99358.72
2023-03-08T22:07:44.130Z,99379.22
2023-03-08T22:10:15.919Z,99379.13
2023-03-08T22:12:44.959Z,99368.81
2023-03-08T22:15:15.611Z,99361.47
2023-03-08T22:17:44.778Z,99351.28
2023-03-08T22:20:14.083Z,99359.56
2023-03-08T22:22:44.076Z,99356.97
2023-03-08T22:25:14.609Z,99367.28
2023-03-08T22:27:43.596Z,99366.13
2023-03-08T22:30:13.605Z,99355.69
2023-03-08T22:32:43.312Z,99361.16
2023-03-08T22:35:13.557Z,99366.31
2023-03-08T22:37:43.743Z,99363.13
2023-03-08T22:40:15.083Z,99362.00
2023-03-08T22:42:44.121Z,99360.47
2023-03-08T22:45:14.150Z,99356.84
2023-03-08T22:47:43.457Z,99346.31
2023-03-08T22:50:13.448Z,99355.41
2023-03-08T22:52:42.462Z,99352.28
2023-03-08T22:55:13.730Z,99353.25
2023-03-08T22:57:42.762Z,99362.84
2023-03-08T23:00:15.182Z,99352.72
2023-03-08T23:02:45.416Z,99351.38
2023-03-08T23:05:16.014Z,99350.38
2023-03-08T23:07:45.040Z,99352.28
2023-03-08T23:10:17.785Z,99352.72
2023-03-08T23:12:47.496Z,99355.31
2023-03-08T23:15:16.496Z,99360.25
2023-03-08T23:17:45.637Z,99350.25
2023-03-08T23:20:15.032Z,99346.66
2023-03-08T23:22:45.215Z,99350.25
2023-03-08T23:25:15.771Z,99353.88
2023-03-08T23:27:45.704Z,99345.91
2023-03-08T23:30:18.437Z,99345.50
2023-03-08T23:32:47.502Z,99348.72
2023-03-08T23:35:16.638Z,99346.53
2023-03-08T23:37:46.828Z,99340.25
2023-03-08T23:40:17.993Z,99338.28
2023-03-08T23:42:47.114Z,99345.78
2023-03-08T23:45:16.144Z,99340.00
2023-03-08T23:47:45.219Z,99339.94
2023-03-08T23:50:14.253Z,99343.63
2023-03-08T23:52:43.315Z,99350.41
2023-03-08T23:55:13.258Z,99351.78
2023-03-08T23:57:43.606Z,99354.16
